createdAt,value
2022-10-27T00:00:39.383Z,64.89
2022-10-27T00:03:06.845Z,66.00
2022-10-27T00:05:34.365Z,66.42
2022-10-27T00:08:01.436Z,66.88
2022-10-27T00:10:28.466Z,66.25
2022-10-27T00:12:58.667Z,64.98
2022-10-27T00:15:26.809Z,64.61
2022-10-27T00:17:53.710Z,64.67
2022-10-27T00:20:20.737Z,65.20
2022-10-27T00:22:50.890Z,65.53
2022-10-27T00:25:19.074Z,66.23
2022-10-27T00:27:46.083Z,66.10
2022-10-27T00:30:13.217Z,64.97
2022-10-27T00:32:40.545Z,64.39
2022-10-27T00:35:07.865Z,64.14
2022-10-27T00:37:34.856Z,64.56
2022-10-27T00:40:01.886Z,64.91
2022-10-27T00:42:29.313Z,65.37
2022-10-27T00:44:56.334Z,65.75
2022-10-27T00:47:28.007Z,64.89
2022-10-27T00:50:01.671Z,64.72
2022-10-27T00:52:33.345Z,65.09
2022-10-27T00:55:12.903Z,65.21
2022-10-27T00:57:40.655Z,65.66
2022-10-27T01:00:09.101Z,66.71
2022-10-27T01:02:36.858Z,67.20
2022-10-27T01:05:11.575Z,65.88
2022-10-27T01:07:39.650Z,65.41
2022-10-27T01:10:06.946Z,65.80
2022-10-27T01:12:34.505Z,66.33
2022-10-27T01:15:01.446Z,66.30
2022-10-27T01:17:31.394Z,66.88
2022-10-27T01:20:24.734Z,67.21
2022-10-27T01:23:03.101Z,65.73
2022-10-27T01:25:52.910Z,65.52
2022-10-27T01:28:31.991Z,65.04
2022-10-27T01:31:14.044Z,65.64
2022-10-27T01:33:52.050Z,66.21
2022-10-27T01:36:25.039Z,67.03
2022-10-27T01:38:59.285Z,67.59
2022-10-27T01:44:17.713Z,65.69
2022-10-27T01:46:44.658Z,65.70
2022-10-27T01:49:12.460Z,66.59
2022-10-27T01:51:40.644Z,66.69
2022-10-27T01:54:07.751Z,67.48
2022-10-27T01:57:07.261Z,67.40
2022-10-27T01:59:58.845Z,65.86
2022-10-27T02:02:48.520Z,65.40
2022-10-27T02:05:32.300Z,65.98
2022-10-27T02:08:11.785Z,65.91
2022-10-27T02:10:46.805Z,65.79
2022-10-27T02:13:14.069Z,66.66
2022-10-27T02:15:44.027Z,66.51
2022-10-27T02:18:33.011Z,64.81
2022-10-27T02:23:28.525Z,65.02
2022-10-27T02:26:13.918Z,65.42
2022-10-27T02:29:06.981Z,65.66
2022-10-27T02:31:36.121Z,66.66
2022-10-27T02:34:03.477Z,66.78
2022-10-27T02:36:31.113Z,64.87
2022-10-27T02:38:58.050Z,64.13
2022-10-27T02:41:25.547Z,63.75
2022-10-27T02:43:55.581Z,64.78
2022-10-27T02:46:22.788Z,64.94
2022-10-27T02:48:49.706Z,65.06
2022-10-27T02:51:16.722Z,65.91
2022-10-27T02:53:44.338Z,66.29
2022-10-27T02:56:12.560Z,64.70
2022-10-27T02:58:40.815Z,64.09
2022-10-27T03:01:07.787Z,64.46
2022-10-27T03:03:34.927Z,64.94
2022-10-27T03:06:02.429Z,65.15
2022-10-27T03:08:29.944Z,65.84
2022-10-27T03:10:59.056Z,65.92
2022-10-27T03:13:26.098Z,64.24
2022-10-27T03:15:54.176Z,63.46
2022-10-27T03:18:21.699Z,63.64
2022-10-27T03:20:49.807Z,64.05
2022-10-27T03:23:17.002Z,64.26
2022-10-27T03:25:47.630Z,65.18
2022-10-27T03:28:16.347Z,65.53
2022-10-27T03:30:48.654Z,64.39
2022-10-27T03:33:15.948Z,64.29
2022-10-27T03:35:44.005Z,64.69
2022-10-27T03:38:13.110Z,64.76
2022-10-27T03:40:40.201Z,65.14
2022-10-27T03:43:07.594Z,65.71
2022-10-27T03:45:35.834Z,66.04
2022-10-27T03:48:07.669Z,65.12
2022-10-27T03:50:34.896Z,64.58
2022-10-27T03:53:03.645Z,64.71
2022-10-27T03:55:32.214Z,65.44
2022-10-27T03:57:59.754Z,65.99
2022-10-27T04:00:28.809Z,66.62
2022-10-27T04:02:57.090Z,66.44
2022-10-27T04:05:24.224Z,65.61
2022-10-27T04:07:52.925Z,64.97
2022-10-27T04:10:19.918Z,65.28
2022-10-27T04:12:59.394Z,65.26
2022-10-27T04:15:27.256Z,66.32
2022-10-27T04:17:55.270Z,67.45
2022-10-27T04:20:23.049Z,67.77
2022-10-27T04:22:50.563Z,66.10
2022-10-27T04:25:18.043Z,65.50
2022-10-27T04:27:45.693Z,65.68
2022-10-27T04:30:12.804Z,65.99
2022-10-27T04:32:41.162Z,66.03
2022-10-27T04:35:08.799Z,66.46
2022-10-27T04:37:35.819Z,66.92
2022-10-27T04:40:02.974Z,65.61
2022-10-27T04:42:30.525Z,65.41
2022-10-27T04:44:57.431Z,65.41
2022-10-27T04:47:24.463Z,65.97
2022-10-27T04:49:51.433Z,66.73
2022-10-27T04:52:18.453Z,67.48
2022-10-27T04:54:45.793Z,67.74
2022-10-27T04:57:13.152Z,66.61
2022-10-27T04:59:40.661Z,66.06
2022-10-27T05:02:07.850Z,66.12
2022-10-27T05:04:35.906Z,66.06
2022-10-27T05:07:03.103Z,66.23
2022-10-27T05:09:30.008Z,67.08
2022-10-27T05:11:57.270Z,67.17
2022-10-27T05:14:24.330Z,65.91
2022-10-27T05:16:51.619Z,65.22
2022-10-27T05:19:18.546Z,65.45
2022-10-27T05:21:45.633Z,65.82
2022-10-27T05:24:12.643Z,67.06
2022-10-27T05:26:39.667Z,67.54
2022-10-27T05:29:06.820Z,67.63
2022-10-27T05:31:33.868Z,66.41
2022-10-27T05:34:01.177Z,65.64
2022-10-27T05:36:28.487Z,65.13
2022-10-27T05:38:56.440Z,65.35
2022-10-27T05:41:23.465Z,65.78
2022-10-27T05:43:52.578Z,66.56
2022-10-27T05:46:19.578Z,66.27
2022-10-27T05:48:46.585Z,65.20
2022-10-27T05:51:15.707Z,64.93
2022-10-27T05:53:44.936Z,64.91
2022-10-27T05:56:11.845Z,65.19
2022-10-27T05:58:39.105Z,65.91
2022-10-27T06:01:06.161Z,66.11
2022-10-27T06:03:33.446Z,66.17
2022-10-27T06:06:03.439Z,65.05
2022-10-27T06:08:30.623Z,64.30
2022-10-27T06:10:57.898Z,64.47
2022-10-27T06:13:25.942Z,65.18
2022-10-27T06:15:53.429Z,65.39
2022-10-27T06:18:23.561Z,65.58
2022-10-27T06:20:50.670Z,65.64
2022-10-27T06:23:17.783Z,64.44
2022-10-27T06:25:44.956Z,63.97
2022-10-27T06:28:11.874Z,63.50
2022-10-27T06:30:39.408Z,64.01
2022-10-27T06:33:08.059Z,64.74
2022-10-27T06:35:35.147Z,64.79
2022-10-27T06:38:02.088Z,64.46
2022-10-27T06:40:29.753Z,62.92
2022-10-27T06:43:12.186Z,62.35
2022-10-27T06:45:39.696Z,61.95
2022-10-27T06:48:08.289Z,62.29
2022-10-27T06:50:55.084Z,62.73
2022-10-27T06:53:22.057Z,62.72
2022-10-27T06:55:49.011Z,63.68
2022-10-27T06:58:15.931Z,63.67
2022-10-27T07:00:43.175Z,62.41
2022-10-27T07:05:38.373Z,61.86
2022-10-27T07:08:05.705Z,61.90
2022-10-27T07:10:32.599Z,61.99
2022-10-27T07:13:00.993Z,62.19
2022-10-27T07:15:36.645Z,63.26
2022-10-27T07:18:06.925Z,63.09
2022-10-27T07:20:35.006Z,61.68
2022-10-27T07:23:02.579Z,60.47
2022-10-27T07:25:30.651Z,60.90
2022-10-27T07:27:58.373Z,62.07
2022-10-27T07:30:30.470Z,62.84
2022-10-27T07:32:57.787Z,64.03
2022-10-27T07:35:24.830Z,64.42
2022-10-27T07:37:52.464Z,62.70
2022-10-27T07:40:21.621Z,61.09
2022-10-27T07:42:54.535Z,60.93
2022-10-27T07:45:22.671Z,61.12
2022-10-27T07:47:51.267Z,61.48
2022-10-27T07:50:19.733Z,61.40
2022-10-27T07:52:48.436Z,61.43
2022-10-27T07:55:15.976Z,61.67
2022-10-27T07:57:43.555Z,62.41
2022-10-27T08:00:12.762Z,60.90
2022-10-27T08:02:40.015Z,58.82
2022-10-27T08:05:07.910Z,59.04
2022-10-27T08:07:35.423Z,59.23
2022-10-27T08:10:05.071Z,59.53
2022-10-27T08:12:32.084Z,59.79
2022-10-27T08:14:59.574Z,60.25
2022-10-27T08:17:28.921Z,60.72
2022-10-27T08:19:56.232Z,61.54
2022-10-27T08:22:23.947Z,61.79
2022-10-27T08:24:51.034Z,59.92
2022-10-27T08:27:17.980Z,58.96
2022-10-27T08:29:45.112Z,57.83
2022-10-27T08:32:12.950Z,57.32
2022-10-27T08:34:39.872Z,57.63
2022-10-27T08:37:06.851Z,57.36
2022-10-27T08:39:35.580Z,57.47
2022-10-27T08:42:45.020Z,57.29
2022-10-27T08:45:18.675Z,56.22
2022-10-27T08:47:45.824Z,54.78
2022-10-27T08:50:21.785Z,54.61
2022-10-27T08:52:57.132Z,54.23
2022-10-27T08:55:29.936Z,53.83
2022-10-27T08:58:23.266Z,52.66
2022-10-27T09:00:53.999Z,50.55
2022-10-27T09:03:31.587Z,51.00
2022-10-27T09:06:09.352Z,49.54
2022-10-27T09:08:49.998Z,49.55
2022-10-27T09:11:45.986Z,49.18
2022-10-27T09:14:45.570Z,48.91
2022-10-27T09:17:25.590Z,49.16
2022-10-27T09:20:05.840Z,47.13
2022-10-27T09:22:34.245Z,45.77
2022-10-27T09:25:03.736Z,44.90
2022-10-27T09:27:30.967Z,44.75
2022-10-27T09:30:03.525Z,44.58
2022-10-27T09:32:33.168Z,44.71
2022-10-27T09:35:02.236Z,44.35
2022-10-27T09:37:31.320Z,43.54
2022-10-27T09:39:58.319Z,42.29
2022-10-27T09:42:27.117Z,42.82
2022-10-27T09:45:01.042Z,41.20
2022-10-27T09:47:38.437Z,41.74
2022-10-27T09:50:08.885Z,42.40
2022-10-27T09:52:39.954Z,43.87
2022-10-27T09:55:07.480Z,43.78
2022-10-27T09:57:35.545Z,41.31
2022-10-27T10:00:08.611Z,40.93
2022-10-27T10:02:45.661Z,40.08
2022-10-27T10:05:25.559Z,39.50
2022-10-27T10:07:55.337Z,38.78
2022-10-27T10:10:28.591Z,38.05
2022-10-27T10:13:10.745Z,36.75
2022-10-27T10:15:45.829Z,35.65
2022-10-27T10:18:23.097Z,35.33
2022-10-27T10:20:56.546Z,34.14
2022-10-27T10:23:24.905Z,34.22
2022-10-27T10:25:53.015Z,33.12
2022-10-27T10:28:43.406Z,33.42
2022-10-27T10:31:13.185Z,34.21
2022-10-27T10:33:45.170Z,34.97
2022-10-27T10:36:35.582Z,35.89
2022-10-27T10:39:02.936Z,36.21
2022-10-27T10:41:31.845Z,37.05
2022-10-27T10:44:14.922Z,37.57
2022-10-27T10:46:53.367Z,36.94
2022-10-27T10:49:30.937Z,37.61
2022-10-27T10:52:02.674Z,38.38
2022-10-27T10:54:35.038Z,38.00
2022-10-27T10:57:02.557Z,37.35
2022-10-27T10:59:33.704Z,36.00
2022-10-27T11:02:04.511Z,35.26
2022-10-27T11:04:40.994Z,34.93
2022-10-27T11:07:31.864Z,34.32
2022-10-27T11:10:12.794Z,33.30
2022-10-27T11:12:56.336Z,32.75
2022-10-27T11:15:35.996Z,32.40
2022-10-27T11:18:24.787Z,32.61
2022-10-27T11:20:55.189Z,32.21
2022-10-27T11:23:28.419Z,32.64
2022-10-27T11:25:58.795Z,32.24
2022-10-27T11:28:28.121Z,32.73
2022-10-27T11:31:06.155Z,32.48
2022-10-27T11:33:52.385Z,32.66
2022-10-27T11:36:21.780Z,32.64
2022-10-27T11:39:08.397Z,32.55
2022-10-27T11:41:44.216Z,32.23
2022-10-27T11:44:43.974Z,32.44
2022-10-27T11:47:11.765Z,32.55
2022-10-27T11:49:43.942Z,32.63
2022-10-27T11:52:25.678Z,32.87
2022-10-27T11:54:53.004Z,32.91
2022-10-27T11:57:41.686Z,32.61
2022-10-27T12:00:20.773Z,32.34
2022-10-27T12:03:06.180Z,32.58
2022-10-27T12:05:58.128Z,32.52
2022-10-27T12:08:40.861Z,32.34
2022-10-27T12:11:23.407Z,32.64
2022-10-27T12:14:09.547Z,33.06
2022-10-27T12:16:55.893Z,32.82
2022-10-27T12:19:28.170Z,32.70
2022-10-27T12:22:01.543Z,32.44
2022-10-27T12:24:40.146Z,33.28
2022-10-27T12:27:10.191Z,33.77
2022-10-27T12:29:39.721Z,33.42
2022-10-27T12:32:11.406Z,34.27
2022-10-27T12:34:41.404Z,34.46
2022-10-27T12:37:22.554Z,34.20
2022-10-27T12:39:53.573Z,34.54
2022-10-27T12:42:42.586Z,34.78
2022-10-27T12:45:34.176Z,35.01
2022-10-27T12:48:10.188Z,35.42
2022-10-27T12:50:58.879Z,35.29
2022-10-27T12:53:40.371Z,35.03
2022-10-27T12:56:23.378Z,35.73
2022-10-27T12:58:52.588Z,35.81
2022-10-27T13:01:44.855Z,35.98
2022-10-27T13:04:44.086Z,36.61
2022-10-27T13:07:32.356Z,37.48
2022-10-27T13:10:30.203Z,38.01
2022-10-27T13:13:03.213Z,38.23
2022-10-27T13:15:38.621Z,38.75
2022-10-27T13:18:15.636Z,38.58
2022-10-27T13:21:16.141Z,39.34
2022-10-27T13:24:03.450Z,39.41
2022-10-27T13:26:34.848Z,39.95
2022-10-27T13:29:14.224Z,40.75
2022-10-27T13:31:41.296Z,40.91
2022-10-27T13:34:08.367Z,41.19
2022-10-27T13:36:37.420Z,41.40
2022-10-27T13:39:13.496Z,41.76
2022-10-27T13:41:50.040Z,42.43
2022-10-27T13:44:27.149Z,42.65
2022-10-27T13:47:10.787Z,43.07
2022-10-27T13:49:40.949Z,42.74
2022-10-27T13:52:16.933Z,42.65
2022-10-27T13:55:14.392Z,43.15
2022-10-27T13:58:07.043Z,43.22
2022-10-27T14:00:47.057Z,43.45
2022-10-27T14:06:14.470Z,43.55
2022-10-27T14:08:51.807Z,43.97
2022-10-27T14:11:30.248Z,44.02
2022-10-27T14:14:01.778Z,44.76
2022-10-27T14:16:38.134Z,44.87
2022-10-27T14:19:06.794Z,45.30
2022-10-27T14:21:36.788Z,45.65
2022-10-27T14:24:06.064Z,46.10
2022-10-27T14:26:37.185Z,46.66
2022-10-27T14:29:04.941Z,47.19
2022-10-27T14:31:33.556Z,47.36
2022-10-27T14:34:26.071Z,47.93
2022-10-27T14:36:57.280Z,48.63
2022-10-27T14:39:31.456Z,49.09
2022-10-27T14:42:02.804Z,49.47
2022-10-27T14:44:32.172Z,50.17
2022-10-27T14:47:01.174Z,50.37
2022-10-27T14:49:32.356Z,50.78
2022-10-27T14:52:03.880Z,51.08
2022-10-27T14:54:31.079Z,51.23
2022-10-27T14:57:24.399Z,51.24
2022-10-27T14:59:51.727Z,52.05
2022-10-27T15:02:18.980Z,52.75
2022-10-27T15:04:45.979Z,53.34
2022-10-27T15:07:15.406Z,54.04
2022-10-27T15:09:50.102Z,54.86
2022-10-27T15:12:25.097Z,55.29
2022-10-27T15:14:54.566Z,56.20
2022-10-27T15:17:28.109Z,56.85
2022-10-27T15:19:57.331Z,57.39
2022-10-27T15:22:24.358Z,58.04
2022-10-27T15:24:51.350Z,58.29
2022-10-27T15:27:19.272Z,58.85
2022-10-27T15:29:48.484Z,58.52
2022-10-27T15:32:23.327Z,57.21
2022-10-27T15:34:50.466Z,56.36
2022-10-27T15:37:23.926Z,56.86
2022-10-27T15:39:51.924Z,57.24
2022-10-27T15:42:20.356Z,57.25
2022-10-27T15:44:48.103Z,57.91
2022-10-27T15:47:42.049Z,57.89
2022-10-27T15:50:25.752Z,58.85
2022-10-27T15:53:05.332Z,58.96
2022-10-27T15:55:32.582Z,60.17
2022-10-27T15:57:59.705Z,59.72
2022-10-27T16:00:27.595Z,58.42
2022-10-27T16:02:58.412Z,58.10
2022-10-27T16:05:32.221Z,58.71
2022-10-27T16:08:00.101Z,58.79
2022-10-27T16:10:27.438Z,59.25
2022-10-27T16:12:54.792Z,59.98
2022-10-27T16:15:23.772Z,59.50
2022-10-27T16:17:56.535Z,59.86
2022-10-27T16:20:24.604Z,61.07
2022-10-27T16:22:52.079Z,61.96
2022-10-27T16:25:21.223Z,62.00
2022-10-27T16:27:48.138Z,62.52
2022-10-27T16:30:17.381Z,60.93
2022-10-27T16:32:44.457Z,60.26
2022-10-27T16:35:15.264Z,60.11
2022-10-27T16:37:44.017Z,60.78
2022-10-27T16:40:17.490Z,61.17
2022-10-27T16:42:50.594Z,61.59
2022-10-27T16:45:20.408Z,61.93
2022-10-27T16:47:49.427Z,62.23
2022-10-27T16:50:16.685Z,63.17
2022-10-27T16:52:43.851Z,62.75
2022-10-27T16:55:13.775Z,61.42
2022-10-27T16:57:47.209Z,60.74
2022-10-27T17:00:16.931Z,61.52
2022-10-27T17:02:44.026Z,61.53
2022-10-27T17:05:11.175Z,62.35
2022-10-27T17:07:39.271Z,62.73
2022-10-27T17:10:07.140Z,63.27
2022-10-27T17:12:35.376Z,62.93
2022-10-27T17:15:02.380Z,61.71
2022-10-27T17:17:29.441Z,61.35
2022-10-27T17:19:56.550Z,61.51
2022-10-27T17:22:23.530Z,61.61
2022-10-27T17:24:50.899Z,62.23
2022-10-27T17:27:17.825Z,62.69
2022-10-27T17:29:47.102Z,63.36
2022-10-27T17:32:14.483Z,63.18
2022-10-27T17:34:43.511Z,61.85
2022-10-27T17:37:11.981Z,61.46
2022-10-27T17:39:39.031Z,61.92
2022-10-27T17:42:07.348Z,61.96
2022-10-27T17:44:34.513Z,62.42
2022-10-27T17:47:01.724Z,62.94
2022-10-27T17:49:28.921Z,63.50
2022-10-27T17:51:55.968Z,63.66
2022-10-27T17:54:24.755Z,62.22
2022-10-27T17:56:52.013Z,61.75
2022-10-27T17:59:20.254Z,62.04
2022-10-27T18:01:49.965Z,62.66
2022-10-27T18:04:17.558Z,63.04
2022-10-27T18:06:44.677Z,63.52
2022-10-27T18:09:13.728Z,64.31
2022-10-27T18:11:41.933Z,64.31
2022-10-27T18:14:13.329Z,62.70
2022-10-27T18:16:41.021Z,62.10
2022-10-27T18:19:11.369Z,62.28
2022-10-27T18:21:44.401Z,62.55
2022-10-27T18:24:12.496Z,62.95
2022-10-27T18:26:42.053Z,63.52
2022-10-27T18:29:10.417Z,64.20
2022-10-27T18:31:38.809Z,64.16
2022-10-27T18:34:10.181Z,62.88
2022-10-27T18:36:37.827Z,62.30
2022-10-27T18:39:05.589Z,62.32
2022-10-27T18:41:34.195Z,62.66
2022-10-27T18:44:01.289Z,63.29
2022-10-27T18:46:28.885Z,63.81
2022-10-27T18:48:59.067Z,64.49
2022-10-27T18:51:29.180Z,64.30
2022-10-27T18:53:57.551Z,63.00
2022-10-27T18:56:54.311Z,62.79
2022-10-27T18:59:21.289Z,62.61
2022-10-27T19:01:48.480Z,63.20
2022-10-27T19:04:16.171Z,63.67
2022-10-27T19:06:43.855Z,64.16
2022-10-27T19:09:11.342Z,65.11
2022-10-27T19:11:38.412Z,65.21
2022-10-27T19:14:06.540Z,63.36
2022-10-27T19:16:34.773Z,62.77
2022-10-27T19:19:02.819Z,62.99
2022-10-27T19:21:30.094Z,63.19
2022-10-27T19:24:02.215Z,63.63
2022-10-27T19:26:31.232Z,64.36
2022-10-27T19:28:58.454Z,65.29
2022-10-27T19:31:27.838Z,65.33
2022-10-27T19:33:55.358Z,64.02
2022-10-27T19:36:33.258Z,63.42
2022-10-27T19:39:01.708Z,63.43
2022-10-27T19:41:30.741Z,63.98
2022-10-27T19:43:57.873Z,64.51
2022-10-27T19:46:25.819Z,65.47
2022-10-27T19:48:57.583Z,65.22
2022-10-27T19:51:26.604Z,63.92
2022-10-27T19:53:54.289Z,63.49
2022-10-27T19:56:21.824Z,63.84
2022-10-27T19:58:53.256Z,64.62
2022-10-27T20:01:40.394Z,65.05
2022-10-27T20:04:11.086Z,66.00
2022-10-27T20:06:48.167Z,65.29
2022-10-27T20:09:16.361Z,63.89
2022-10-27T20:11:44.766Z,63.48
2022-10-27T20:14:12.414Z,63.53
2022-10-27T20:16:42.349Z,63.98
2022-10-27T20:19:14.665Z,64.75
2022-10-27T20:21:41.863Z,65.20
2022-10-27T20:24:12.778Z,65.50
2022-10-27T20:26:44.434Z,65.51
2022-10-27T20:29:12.575Z,64.12
2022-10-27T20:31:40.220Z,63.76
2022-10-27T20:34:10.532Z,63.84
2022-10-27T20:36:40.407Z,63.96
2022-10-27T20:39:08.159Z,64.44
2022-10-27T20:41:35.215Z,65.54
2022-10-27T20:44:02.717Z,64.84
2022-10-27T20:46:31.835Z,63.57
2022-10-27T20:48:59.290Z,62.82
2022-10-27T20:51:28.934Z,62.86
2022-10-27T20:53:56.034Z,63.47
2022-10-27T20:56:28.104Z,65.02
2022-10-27T20:58:55.365Z,65.50
2022-10-27T21:01:29.458Z,65.26
2022-10-27T21:04:00.384Z,63.76
2022-10-27T21:06:27.797Z,63.52
2022-10-27T21:08:56.239Z,63.54
2022-10-27T21:11:26.881Z,63.81
2022-10-27T21:13:57.209Z,64.68
2022-10-27T21:16:24.332Z,65.65
2022-10-27T21:18:52.867Z,65.83
2022-10-27T21:21:20.738Z,64.75
2022-10-27T21:23:48.358Z,64.80
2022-10-27T21:26:15.434Z,65.19
2022-10-27T21:28:42.902Z,65.62
2022-10-27T21:31:12.685Z,66.15
2022-10-27T21:33:40.420Z,66.38
2022-10-27T21:36:07.978Z,66.35
2022-10-27T21:38:42.482Z,65.10
2022-10-27T21:41:09.594Z,65.15
2022-10-27T21:43:38.334Z,65.30
2022-10-27T21:46:05.504Z,65.37
2022-10-27T21:48:32.692Z,66.18
2022-10-27T21:50:59.769Z,66.54
2022-10-27T21:53:26.961Z,66.52
2022-10-27T21:56:04.669Z,65.36
2022-10-27T21:58:32.490Z,64.54
2022-10-27T22:01:10.587Z,65.00
2022-10-27T22:03:38.268Z,65.29
2022-10-27T22:06:05.719Z,65.85
2022-10-27T22:08:34.686Z,66.36
2022-10-27T22:11:16.537Z,66.29
2022-10-27T22:13:45.575Z,64.84
2022-10-27T22:16:14.790Z,64.13
2022-10-27T22:18:42.225Z,64.40
2022-10-27T22:21:11.697Z,65.13
2022-10-27T22:23:41.401Z,65.25
2022-10-27T22:26:10.932Z,65.82
2022-10-27T22:28:39.231Z,66.25
2022-10-27T22:31:10.831Z,65.24
2022-10-27T22:33:41.893Z,64.92
2022-10-27T22:36:14.166Z,64.80
2022-10-27T22:38:41.318Z,64.71
2022-10-27T22:41:15.802Z,66.05
2022-10-27T22:43:43.267Z,67.73
2022-10-27T22:46:14.836Z,66.84
2022-10-27T22:48:41.764Z,65.28
2022-10-27T22:51:10.994Z,65.20
2022-10-27T22:53:39.530Z,64.96
2022-10-27T22:56:11.803Z,65.64
2022-10-27T22:58:40.095Z,65.34
2022-10-27T23:01:13.887Z,66.23
2022-10-27T23:03:41.275Z,66.34
2022-10-27T23:06:10.869Z,65.66
2022-10-27T23:08:38.030Z,64.95
2022-10-27T23:11:06.555Z,64.77
2022-10-27T23:13:35.570Z,64.72
2022-10-27T23:16:07.381Z,65.46
2022-10-27T23:18:37.342Z,65.87
2022-10-27T23:21:08.499Z,65.84
2022-10-27T23:23:35.651Z,64.53
2022-10-27T23:26:02.692Z,64.68
2022-10-27T23:28:30.102Z,64.77
2022-10-27T23:31:01.092Z,64.98
2022-10-27T23:33:27.923Z,65.39
2022-10-27T23:36:00.805Z,65.78
2022-10-27T23:38:28.407Z,66.09
2022-10-27T23:40:56.897Z,66.32
2022-10-27T23:43:24.091Z,65.24
2022-10-27T23:45:57.705Z,65.06
2022-10-27T23:48:24.746Z,65.23
2022-10-27T23:50:51.802Z,65.40
2022-10-27T23:53:19.269Z,65.44
2022-10-27T23:55:53.405Z,67.00
2022-10-27T23:58:20.494Z,66.51
